Time;durP1;ratioP1;P1;durP2;ratioP2;P2;SDS_P1;SDS_P2;PMS_P1;PMS_P2;Temp;Humidity;BMP_temperature;BMP_pressure;BME280_temperature;BME280_humidity;BME280_pressure;Samples;Min_cycle;Max_cycle;Signal;HPM_P1;HPM_P2
2023/04/20 00:01:46;;;;;;;12.30;5.70;;;;;;;;;;5054472;28;20032;-80
2023/04/20 00:04:14;;;;;;;10.47;6.67;;;;;;;;;;5053579;28;20106;-80
2023/04/20 00:06:41;;;;;;;9.57;6.90;;;;;;;;;;5053412;28;20032;-79
2023/04/20 00:09:07;;;;;;;11.27;7.03;;;;;;;;;;5054698;28;20036;-80
2023/04/20 00:11:32;;;;;;;12.23;7.90;;;;;;;;;;5052590;28;20456;-80
2023/04/20 00:13:58;;;;;;;10.00;7.10;;;;;;;;;;5053622;28;20063;-80
2023/04/20 00:16:24;;;;;;;9.97;5.83;;;;;;;;;;5051589;28;20029;-81
2023/04/20 00:18:50;;;;;;;8.10;5.80;;;;;;;;;;5054675;28;20112;-81
2023/04/20 00:21:16;;;;;;;10.93;7.00;;;;;;;;;;5054832;28;20048;-82
2023/04/20 00:23:41;;;;;;;10.57;7.00;;;;;;;;;;5053696;28;20358;-81
2023/04/20 00:26:07;;;;;;;9.17;6.27;;;;;;;;;;5054790;28;20040;-80
2023/04/20 00:28:32;;;;;;;10.17;6.03;;;;;;;;;;5055653;28;20059;-80
2023/04/20 00:30:58;;;;;;;11.40;6.93;;;;;;;;;;5054028;28;20033;-80
2023/04/20 00:33:23;;;;;;;10.90;6.77;;;;;;;;;;5053768;28;20075;-79
2023/04/20 00:35:49;;;;;;;10.17;5.90;;;;;;;;;;5054163;28;20052;-81
2023/04/20 00:38:14;;;;;;;15.97;7.47;;;;;;;;;;5055652;28;20025;-80
2023/04/20 00:40:42;;;;;;;9.03;6.17;;;;;;;;;;5054969;28;20025;-80
2023/04/20 00:43:12;;;;;;;10.50;6.50;;;;;;;;;;5053608;28;20032;-80
2023/04/20 00:45:38;;;;;;;10.37;6.80;;;;;;;;;;5055031;28;20041;-80
2023/04/20 00:48:04;;;;;;;12.03;7.00;;;;;;;;;;5052836;28;20109;-80
2023/04/20 00:50:30;;;;;;;13.40;7.00;;;;;;;;;;5054816;28;20013;-81
2023/04/20 00:52:57;;;;;;;13.23;7.37;;;;;;;;;;5052980;28;20139;-81
2023/04/20 00:55:22;;;;;;;10.20;6.87;;;;;;;;;;5054101;28;20384;-78
2023/04/20 00:57:48;;;;;;;12.27;7.13;;;;;;;;;;5053844;28;20021;-79
2023/04/20 01:00:14;;;;;;;12.70;7.67;;;;;;;;;;5053188;28;20044;-81
2023/04/20 01:02:40;;;;;;;10.87;6.87;;;;;;;;;;5054082;28;20024;-80
2023/04/20 01:05:06;;;;;;;13.17;6.80;;;;;;;;;;5053128;28;20059;-81
2023/04/20 01:07:31;;;;;;;12.17;7.67;;;;;;;;;;5053685;28;20036;-80
2023/04/20 01:09:57;;;;;;;12.20;7.53;;;;;;;;;;5054412;28;20112;-80
2023/04/20 01:12:22;;;;;;;12.87;7.83;;;;;;;;;;5052828;28;20029;-80
2023/04/20 01:14:49;;;;;;;11.77;7.20;;;;;;;;;;5053952;28;20159;-79
2023/04/20 01:17:14;;;;;;;12.50;7.53;;;;;;;;;;5050896;28;20025;-81
2023/04/20 01:19:40;;;;;;;18.17;8.80;;;;;;;;;;5054680;28;20505;-79
2023/04/20 01:22:07;;;;;;;13.97;8.07;;;;;;;;;;5052908;28;20543;-78
2023/04/20 01:24:33;;;;;;;11.70;7.57;;;;;;;;;;5052608;28;20159;-81
2023/04/20 01:27:00;;;;;;;15.50;8.20;;;;;;;;;;5056511;28;20472;-80
2023/04/20 01:29:25;;;;;;;12.97;7.80;;;;;;;;;;5056884;28;20104;-80
2023/04/20 01:31:51;;;;;;;10.90;7.37;;;;;;;;;;5056622;28;20036;-81
2023/04/20 01:34:16;;;;;;;13.67;7.27;;;;;;;;;;5056081;28;20035;-80
2023/04/20 01:36:43;;;;;;;12.97;7.37;;;;;;;;;;5056105;28;20506;-80
2023/04/20 01:39:09;;;;;;;11.33;7.27;;;;;;;;;;5056683;28;20052;-81
2023/04/20 01:41:34;;;;;;;12.10;7.67;;;;;;;;;;5057637;28;20400;-82
2023/04/20 01:44:00;;;;;;;13.47;8.13;;;;;;;;;;5056948;28;20476;-81
2023/04/20 01:46:25;;;;;;;14.77;7.20;;;;;;;;;;5057999;28;20056;-80
2023/04/20 01:48:51;;;;;;;17.33;8.13;;;;;;;;;;5058479;28;20146;-81
2023/04/20 01:51:16;;;;;;;11.20;7.53;;;;;;;;;;5056000;28;20017;-81
2023/04/20 01:53:43;;;;;;;11.70;7.13;;;;;;;;;;5058747;28;20039;-80
2023/04/20 01:56:10;;;;;;;13.83;7.77;;;;;;;;;;5057794;28;20029;-80
2023/04/20 01:58:35;;;;;;;10.87;7.30;;;;;;;;;;5055679;28;20032;-80
2023/04/20 02:01:01;;;;;;;12.90;7.50;;;;;;;;;;5056064;28;20025;-80
2023/04/20 02:03:27;;;;;;;16.07;8.50;;;;;;;;;;5056514;28;20028;-80
2023/04/20 02:05:52;;;;;;;14.53;7.77;;;;;;;;;;5054446;28;20052;-81
2023/04/20 02:08:18;;;;;;;13.63;8.77;;;;;;;;;;5057067;28;20033;-81
2023/04/20 02:10:44;;;;;;;14.83;8.07;;;;;;;;;;5057299;28;20472;-80
2023/04/20 02:13:10;;;;;;;15.23;9.00;;;;;;;;;;5056326;28;20029;-81
2023/04/20 02:15:36;;;;;;;12.10;8.60;;;;;;;;;;5057174;28;20033;-80
2023/04/20 02:18:02;;;;;;;14.77;8.70;;;;;;;;;;5055185;28;20043;-81
2023/04/20 02:20:27;;;;;;;14.47;8.87;;;;;;;;;;5055986;28;20245;-81
2023/04/20 02:22:53;;;;;;;16.07;8.17;;;;;;;;;;5054498;28;20035;-80
2023/04/20 02:25:20;;;;;;;12.83;8.30;;;;;;;;;;5055748;28;20056;-81
2023/04/20 02:27:45;;;;;;;15.27;8.43;;;;;;;;;;5057374;28;20079;-81
2023/04/20 02:30:11;;;;;;;14.53;8.60;;;;;;;;;;5056182;28;20021;-81
2023/04/20 02:32:37;;;;;;;14.50;7.87;;;;;;;;;;5057325;28;20031;-80
2023/04/20 02:35:03;;;;;;;14.43;9.13;;;;;;;;;;5055536;28;20484;-81
2023/04/20 02:37:29;;;;;;;16.40;9.60;;;;;;;;;;5055598;28;20020;-80
2023/04/20 02:39:54;;;;;;;16.23;9.40;;;;;;;;;;5055890;28;20579;-80
2023/04/20 02:42:20;;;;;;;15.37;9.97;;;;;;;;;;5057248;28;20057;-80
2023/04/20 02:44:45;;;;;;;17.00;9.03;;;;;;;;;;5055897;28;20595;-80
2023/04/20 02:47:11;;;;;;;14.70;9.13;;;;;;;;;;5056426;28;20055;-81
2023/04/20 02:49:37;;;;;;;14.83;8.93;;;;;;;;;;5055609;28;20039;-80
2023/04/20 02:52:02;;;;;;;13.83;9.27;;;;;;;;;;5057026;28;20076;-81
2023/04/20 02:54:28;;;;;;;15.07;9.20;;;;;;;;;;5057449;28;20040;-81
2023/04/20 02:56:53;;;;;;;14.37;9.30;;;;;;;;;;5056805;28;20422;-79
2023/04/20 02:59:19;;;;;;;16.07;8.97;;;;;;;;;;5054956;28;20555;-80
2023/04/20 03:01:45;;;;;;;19.87;9.80;;;;;;;;;;5055068;28;20048;-80
2023/04/20 03:04:10;;;;;;;17.23;10.00;;;;;;;;;;5054285;28;20082;-81
2023/04/20 03:06:39;;;;;;;17.47;9.67;;;;;;;;;;5056862;28;20491;-81
2023/04/20 03:09:05;;;;;;;19.70;10.43;;;;;;;;;;5054428;28;20017;-80
2023/04/20 03:11:30;;;;;;;17.43;9.33;;;;;;;;;;5038136;28;20105;-81
2023/04/20 03:13:56;;;;;;;16.67;10.27;;;;;;;;;;5056645;28;20031;-81
2023/04/20 03:16:21;;;;;;;17.47;9.90;;;;;;;;;;5056045;28;20043;-80
2023/04/20 03:18:47;;;;;;;15.47;9.50;;;;;;;;;;5055570;28;20443;-80
2023/04/20 03:21:13;;;;;;;14.40;9.73;;;;;;;;;;5055157;28;20025;-82
2023/04/20 03:23:39;;;;;;;20.27;10.83;;;;;;;;;;5054938;28;20056;-79
2023/04/20 03:26:04;;;;;;;18.30;10.50;;;;;;;;;;5053918;28;20040;-80
2023/04/20 03:28:30;;;;;;;17.53;9.60;;;;;;;;;;5055468;28;20020;-80
2023/04/20 03:30:55;;;;;;;19.17;9.80;;;;;;;;;;5055180;28;20504;-81
2023/04/20 03:33:21;;;;;;;18.23;11.03;;;;;;;;;;5056380;28;20009;-80
2023/04/20 03:35:46;;;;;;;18.57;10.37;;;;;;;;;;5054980;28;20029;-81
2023/04/20 03:38:12;;;;;;;16.87;9.97;;;;;;;;;;5056183;28;20385;-80
2023/04/20 03:40:37;;;;;;;14.03;9.47;;;;;;;;;;5054775;28;20025;-80
2023/04/20 03:43:03;;;;;;;20.00;10.47;;;;;;;;;;5054885;28;20040;-81
2023/04/20 03:45:28;;;;;;;17.27;10.93;;;;;;;;;;5056032;28;20029;-80
2023/04/20 03:47:54;;;;;;;19.80;9.57;;;;;;;;;;5056629;28;20060;-81
2023/04/20 03:50:19;;;;;;;24.50;9.90;;;;;;;;;;5056718;28;20069;-80
2023/04/20 03:52:45;;;;;;;15.83;9.53;;;;;;;;;;5056564;28;20104;-80
2023/04/20 03:55:10;;;;;;;18.47;9.70;;;;;;;;;;5056254;28;20236;-81
2023/04/20 03:57:37;;;;;;;17.93;10.43;;;;;;;;;;5054953;28;20024;-80
2023/04/20 04:00:03;;;;;;;25.13;11.03;;;;;;;;;;5053846;28;20025;-81
2023/04/20 04:02:30;;;;;;;18.43;10.20;;;;;;;;;;5054136;28;20137;-80
2023/04/20 04:04:56;;;;;;;16.23;9.57;;;;;;;;;;5055913;28;20114;-80
2023/04/20 04:07:21;;;;;;;19.10;10.70;;;;;;;;;;5054191;28;20025;-80
2023/04/20 04:09:47;;;;;;;16.33;10.53;;;;;;;;;;5055083;28;20036;-80
2023/04/20 04:12:12;;;;;;;20.50;9.37;;;;;;;;;;5055023;28;20044;-80
2023/04/20 04:14:38;;;;;;;18.93;10.67;;;;;;;;;;5053791;28;20029;-81
2023/04/20 04:17:04;;;;;;;14.57;9.77;;;;;;;;;;5054444;28;20089;-81
2023/04/20 04:19:29;;;;;;;18.63;9.93;;;;;;;;;;5054689;28;20085;-80
2023/04/20 04:21:55;;;;;;;19.50;9.83;;;;;;;;;;5054477;28;20033;-81
2023/04/20 04:24:21;;;;;;;25.20;10.83;;;;;;;;;;5054685;28;20025;-80
2023/04/20 04:26:47;;;;;;;16.80;9.57;;;;;;;;;;5054352;28;20465;-80
2023/04/20 04:29:13;;;;;;;18.17;9.87;;;;;;;;;;5054616;28;20028;-80
2023/04/20 04:31:39;;;;;;;17.20;10.50;;;;;;;;;;5054421;28;20059;-81
2023/04/20 04:34:05;;;;;;;15.10;9.90;;;;;;;;;;5056063;28;20080;-80
2023/04/20 04:36:31;;;;;;;16.77;9.50;;;;;;;;;;5052523;28;20060;-81
2023/04/20 04:38:56;;;;;;;19.87;10.60;;;;;;;;;;5051227;28;20043;-80
2023/04/20 04:41:22;;;;;;;30.73;12.00;;;;;;;;;;5053546;28;20073;-80
2023/04/20 04:43:47;;;;;;;21.30;11.40;;;;;;;;;;5053456;28;20025;-81
2023/04/20 04:46:13;;;;;;;23.40;11.47;;;;;;;;;;5054314;28;20471;-80
2023/04/20 04:48:41;;;;;;;21.47;9.97;;;;;;;;;;5054355;28;20536;-79
2023/04/20 04:51:07;;;;;;;18.90;9.93;;;;;;;;;;5054925;28;20033;-81
2023/04/20 04:53:33;;;;;;;16.90;10.50;;;;;;;;;;5053717;28;20048;-80
2023/04/20 04:55:58;;;;;;;26.50;10.97;;;;;;;;;;5053679;28;20040;-79
2023/04/20 04:58:24;;;;;;;17.50;10.20;;;;;;;;;;5053840;28;20092;-80
2023/04/20 05:00:50;;;;;;;19.77;10.07;;;;;;;;;;5053810;28;20057;-80
2023/04/20 05:03:16;;;;;;;20.87;11.27;;;;;;;;;;5069250;28;20100;-81
2023/04/20 05:05:41;;;;;;;20.00;10.40;;;;;;;;;;5055388;28;20033;-82
2023/04/20 05:08:07;;;;;;;19.23;11.00;;;;;;;;;;5053249;28;20094;-80
2023/04/20 05:10:32;;;;;;;16.87;9.77;;;;;;;;;;5050891;28;20049;-80
2023/04/20 05:12:59;;;;;;;21.20;11.83;;;;;;;;;;5053191;28;20028;-80
2023/04/20 05:15:25;;;;;;;20.10;10.43;;;;;;;;;;5052115;28;20124;-79
2023/04/20 05:17:51;;;;;;;21.10;11.17;;;;;;;;;;5038195;28;20119;-81
2023/04/20 05:20:17;;;;;;;18.87;10.40;;;;;;;;;;5047382;28;20425;-81
2023/04/20 05:22:43;;;;;;;17.77;10.07;;;;;;;;;;5045945;28;20036;-78
2023/04/20 05:25:09;;;;;;;19.83;10.40;;;;;;;;;;5044611;28;20041;-78
2023/04/20 05:27:35;;;;;;;16.87;10.63;;;;;;;;;;5042971;28;20034;-81
2023/04/20 05:30:00;;;;;;;19.50;10.40;;;;;;;;;;5063324;28;20075;-82
2023/04/20 05:32:26;;;;;;;20.30;10.47;;;;;;;;;;5054295;28;20093;-83
2023/04/20 05:34:52;;;;;;;22.70;10.47;;;;;;;;;;5044397;28;20032;-81
2023/04/20 05:37:17;;;;;;;19.80;10.40;;;;;;;;;;5050133;28;20021;-84
2023/04/20 05:39:45;;;;;;;22.70;11.27;;;;;;;;;;5044664;28;20037;-82
2023/04/20 05:42:15;;;;;;;23.70;11.53;;;;;;;;;;5041925;28;20052;-80
2023/04/20 05:44:42;;;;;;;18.73;11.30;;;;;;;;;;5041970;28;20423;-79
2023/04/20 05:47:08;;;;;;;21.27;10.83;;;;;;;;;;5044899;28;20021;-82
2023/04/20 05:49:34;;;;;;;23.13;12.13;;;;;;;;;;5042817;28;20037;-81
2023/04/20 05:52:01;;;;;;;17.70;10.47;;;;;;;;;;5044271;28;20067;-83
2023/04/20 05:54:29;;;;;;;17.90;10.07;;;;;;;;;;5060811;28;20041;-82
2023/04/20 05:56:57;;;;;;;18.03;10.20;;;;;;;;;;5042688;28;20048;-82
2023/04/20 05:59:23;;;;;;;16.40;10.50;;;;;;;;;;5037363;28;20031;-80
2023/04/20 06:01:49;;;;;;;18.60;10.13;;;;;;;;;;5041401;28;20087;-81
2023/04/20 06:04:15;;;;;;;19.03;10.37;;;;;;;;;;5040856;28;20032;-82
2023/04/20 06:06:40;;;;;;;16.33;9.33;;;;;;;;;;5045168;28;21411;-81
2023/04/20 06:09:05;;;;;;;16.00;9.60;;;;;;;;;;5047252;28;20040;-82
2023/04/20 06:14:19;;;;;;;18.07;9.77;;;;;;;;;;5046304;28;20105;-81
2023/04/20 06:16:44;;;;;;;18.87;9.80;;;;;;;;;;5049011;28;20056;-84
2023/04/20 06:19:28;;;;;;;17.73;9.07;;;;;;;;;;5054286;28;20480;-82
2023/04/20 06:21:54;;;;;;;17.17;8.87;;;;;;;;;;5054860;28;20068;-83
2023/04/20 06:24:19;;;;;;;20.13;9.43;;;;;;;;;;5054369;28;20035;-82
2023/04/20 06:26:45;;;;;;;19.20;9.73;;;;;;;;;;5046299;28;20047;-82
2023/04/20 06:29:10;;;;;;;16.13;10.20;;;;;;;;;;5047559;28;20039;-81
2023/04/20 06:31:37;;;;;;;19.63;9.40;;;;;;;;;;5041944;28;20484;-82
2023/04/20 06:34:08;;;;;;;17.60;9.77;;;;;;;;;;5045533;28;20142;-81
2023/04/20 06:36:34;;;;;;;15.88;9.55;;;;;;;;;;5051725;28;20005;-81
2023/04/20 06:39:00;;;;;;;17.97;9.77;;;;;;;;;;5048380;28;20116;-82
2023/04/20 06:41:25;;;;;;;20.90;10.07;;;;;;;;;;5051418;28;20037;-82
2023/04/20 06:43:50;;;;;;;16.67;8.67;;;;;;;;;;5045362;28;20021;-81
2023/04/20 06:46:16;;;;;;;21.87;9.53;;;;;;;;;;5056732;28;20286;-85
2023/04/20 06:48:43;;;;;;;16.70;9.13;;;;;;;;;;5049909;28;20169;-84
2023/04/20 06:51:11;;;;;;;22.63;10.70;;;;;;;;;;5060291;28;20029;-84
2023/04/20 06:53:36;;;;;;;24.57;10.30;;;;;;;;;;5056457;28;20056;-82
2023/04/20 06:56:03;;;;;;;20.00;9.70;;;;;;;;;;5053430;28;20369;-82
2023/04/20 06:58:29;;;;;;;18.53;9.43;;;;;;;;;;5052014;28;20020;-81
2023/04/20 07:00:54;;;;;;;15.17;9.53;;;;;;;;;;5054744;28;20040;-80
2023/04/20 07:03:20;;;;;;;25.10;9.93;;;;;;;;;;5056234;28;20068;-79
2023/04/20 07:05:47;;;;;;;21.33;10.47;;;;;;;;;;5048707;28;20036;-82
2023/04/20 07:08:16;;;;;;;13.87;9.47;;;;;;;;;;5053082;28;20045;-82
2023/04/20 07:10:41;;;;;;;22.03;9.83;;;;;;;;;;5056690;28;20013;-80
2023/04/20 07:13:07;;;;;;;17.20;10.37;;;;;;;;;;5055898;28;20358;-85
2023/04/20 07:15:32;;;;;;;21.00;12.77;;;;;;;;;;5055566;28;20360;-86
2023/04/20 07:17:58;;;;;;;14.83;9.50;;;;;;;;;;5056057;28;20035;-86
2023/04/20 07:20:24;;;;;;;20.20;10.47;;;;;;;;;;5058215;28;20023;-85
2023/04/20 07:22:50;;;;;;;17.07;10.20;;;;;;;;;;5056688;28;20029;-86
2023/04/20 07:25:16;;;;;;;15.17;9.50;;;;;;;;;;5057493;28;20025;-84
2023/04/20 07:27:42;;;;;;;22.60;10.80;;;;;;;;;;5054650;28;20024;-84
2023/04/20 07:30:09;;;;;;;18.63;10.13;;;;;;;;;;5056639;28;20045;-85
2023/04/20 07:32:36;;;;;;;15.70;10.13;;;;;;;;;;5053076;28;20291;-82
2023/04/20 07:35:02;;;;;;;16.50;9.60;;;;;;;;;;5048478;28;20037;-84
2023/04/20 07:37:30;;;;;;;17.33;9.50;;;;;;;;;;5053651;28;20435;-85
2023/04/20 07:39:55;;;;;;;21.87;9.43;;;;;;;;;;5048719;28;20017;-83
2023/04/20 07:42:21;;;;;;;16.60;9.27;;;;;;;;;;5046767;28;20048;-82
2023/04/20 07:44:47;;;;;;;22.23;10.33;;;;;;;;;;5044457;28;20053;-85
2023/04/20 07:47:12;;;;;;;17.10;10.23;;;;;;;;;;5054282;28;20029;-85
2023/04/20 07:49:39;;;;;;;21.33;10.43;;;;;;;;;;5053146;28;20163;-82
2023/04/20 07:52:06;;;;;;;16.67;10.27;;;;;;;;;;5044608;28;20036;-79
2023/04/20 07:54:32;;;;;;;20.73;11.00;;;;;;;;;;5046422;28;20507;-80
2023/04/20 07:56:58;;;;;;;19.50;10.73;;;;;;;;;;5048600;28;20041;-79
2023/04/20 07:59:24;;;;;;;19.83;11.03;;;;;;;;;;5045778;28;20084;-80
2023/04/20 08:01:50;;;;;;;22.00;12.50;;;;;;;;;;5047419;28;20555;-79
2023/04/20 08:04:16;;;;;;;21.93;12.47;;;;;;;;;;5053480;28;20040;-81
2023/04/20 08:06:42;;;;;;;24.50;13.40;;;;;;;;;;5046256;28;20090;-80
2023/04/20 08:09:07;;;;;;;21.87;12.50;;;;;;;;;;5046098;28;20033;-79
2023/04/20 08:11:34;;;;;;;19.03;11.43;;;;;;;;;;5062293;28;20033;-80
2023/04/20 08:13:59;;;;;;;19.47;11.80;;;;;;;;;;5047637;28;20029;-79
2023/04/20 08:16:25;;;;;;;19.77;11.03;;;;;;;;;;5043662;28;20465;-80
2023/04/20 08:18:50;;;;;;;17.80;13.07;;;;;;;;;;5047982;28;20381;-80
2023/04/20 08:21:16;;;;;;;18.83;12.00;;;;;;;;;;5060910;28;20044;-80
2023/04/20 08:23:42;;;;;;;19.07;10.77;;;;;;;;;;5050440;28;20070;-80
2023/04/20 08:26:07;;;;;;;20.13;11.43;;;;;;;;;;5048089;28;20029;-81
2023/04/20 08:28:33;;;;;;;20.83;12.13;;;;;;;;;;5066667;28;20164;-80
2023/04/20 08:30:58;;;;;;;18.43;10.53;;;;;;;;;;5051966;28;20433;-81
2023/04/20 08:33:24;;;;;;;17.80;10.10;;;;;;;;;;5043916;28;20024;-80
2023/04/20 08:35:50;;;;;;;16.87;10.97;;;;;;;;;;5052704;28;20039;-81
2023/04/20 08:38:17;;;;;;;19.43;10.33;;;;;;;;;;5048112;28;20036;-80
2023/04/20 08:40:43;;;;;;;19.27;9.93;;;;;;;;;;5040025;28;20453;-81
2023/04/20 08:43:08;;;;;;;17.77;10.10;;;;;;;;;;5044825;28;20065;-81
2023/04/20 08:45:35;;;;;;;17.13;11.15;;;;;;;;;;5063262;28;20376;-80
2023/04/20 08:48:10;;;;;;;16.07;10.50;;;;;;;;;;5045833;28;20067;-81
2023/04/20 08:50:40;;;;;;;17.97;10.67;;;;;;;;;;5044901;28;20048;-81
2023/04/20 08:53:06;;;;;;;17.53;11.20;;;;;;;;;;5048379;28;20408;-80
2023/04/20 08:55:32;;;;;;;21.15;10.75;;;;;;;;;;5050349;28;20028;-80
2023/04/20 08:57:58;;;;;;;23.20;12.60;;;;;;;;;;5046432;28;20162;-81
2023/04/20 09:00:24;;;;;;;18.23;10.93;;;;;;;;;;5043267;28;20028;-79
2023/04/20 09:02:54;;;;;;;19.33;11.73;;;;;;;;;;5049759;28;20025;-80
2023/04/20 09:05:30;;;;;;;20.47;10.83;;;;;;;;;;5045668;28;20031;-80
2023/04/20 09:07:58;;;;;;;19.05;10.88;;;;;;;;;;5042947;28;20182;-80
2023/04/20 09:10:26;;;;;;;22.83;11.57;;;;;;;;;;5050349;28;20463;-79
2023/04/20 09:12:52;;;;;;;18.80;10.80;;;;;;;;;;5059726;28;20473;-79
2023/04/20 09:15:29;;;;;;;20.90;11.03;;;;;;;;;;5047579;28;20033;-80
2023/04/20 09:17:55;;;;;;;19.13;10.95;;;;;;;;;;5045380;28;20031;-79
2023/04/20 09:20:33;;;;;;;21.25;11.57;;;;;;;;;;5050265;28;20490;-81
2023/04/20 09:23:17;;;;;;;20.13;11.60;;;;;;;;;;5049444;28;20056;-79
2023/04/20 09:25:45;;;;;;;19.20;11.55;;;;;;;;;;5051587;28;20087;-82
2023/04/20 09:28:12;;;;;;;17.98;10.27;;;;;;;;;;5044890;28;20029;-80
2023/04/20 09:30:46;;;;;;;21.83;11.90;;;;;;;;;;5065335;28;20029;-80
2023/04/20 09:33:14;;;;;;;27.88;12.52;;;;;;;;;;5045501;28;20036;-80
2023/04/20 09:35:41;;;;;;;25.60;11.98;;;;;;;;;;5049962;28;20025;-79
2023/04/20 09:38:14;;;;;;;25.17;13.38;;;;;;;;;;5054211;28;20491;-82
2023/04/20 09:40:40;;;;;;;24.90;11.63;;;;;;;;;;5052987;28;20021;-81
2023/04/20 09:43:16;;;;;;;22.23;11.77;;;;;;;;;;5046486;28;20051;-80
2023/04/20 09:45:42;;;;;;;24.60;11.55;;;;;;;;;;5049757;28;20540;-80
2023/04/20 09:48:09;;;;;;;22.27;11.57;;;;;;;;;;5054900;28;20049;-81
2023/04/20 09:50:36;;;;;;;25.45;12.85;;;;;;;;;;5055897;28;20040;-80
2023/04/20 09:53:03;;;;;;;28.88;12.05;;;;;;;;;;5069742;28;20029;-80
2023/04/20 09:55:32;;;;;;;23.52;12.30;;;;;;;;;;5052223;28;20119;-78
2023/04/20 09:58:01;;;;;;;23.42;11.48;;;;;;;;;;5046746;28;20434;-80
2023/04/20 10:00:27;;;;;;;22.40;12.05;;;;;;;;;;5051274;28;20025;-81
2023/04/20 10:03:01;;;;;;;21.33;12.23;;;;;;;;;;5056102;28;20047;-77
2023/04/20 10:05:38;;;;;;;22.65;11.63;;;;;;;;;;5052245;28;20236;-79
2023/04/20 10:08:04;;;;;;;24.40;11.95;;;;;;;;;;5047266;28;20040;-80
2023/04/20 10:10:41;;;;;;;26.02;12.95;;;;;;;;;;5059071;28;20032;-81
2023/04/20 10:13:07;;;;;;;23.83;13.68;;;;;;;;;;5046594;28;20047;-82
2023/04/20 10:15:37;;;;;;;27.83;12.65;;;;;;;;;;5048856;28;20477;-79
2023/04/20 10:18:16;;;;;;;20.60;11.45;;;;;;;;;;5053448;28;20083;-80
2023/04/20 10:20:42;;;;;;;21.65;11.23;;;;;;;;;;5045819;28;20021;-80
2023/04/20 10:23:10;;;;;;;20.45;11.95;;;;;;;;;;5048457;28;20044;-80
2023/04/20 10:25:36;;;;;;;21.40;12.40;;;;;;;;;;5044843;28;20022;-80
2023/04/20 10:28:05;;;;;;;22.98;12.68;;;;;;;;;;5043484;28;20074;-79
2023/04/20 10:30:32;;;;;;;25.98;13.60;;;;;;;;;;5044005;28;20132;-79
2023/04/20 10:33:06;;;;;;;26.33;12.77;;;;;;;;;;5017233;28;20067;-78
2023/04/20 10:35:50;;;;;;;24.25;12.80;;;;;;;;;;5040231;28;20101;-78
2023/04/20 10:38:32;;;;;;;21.80;12.13;;;;;;;;;;5041308;28;20035;-78
2023/04/20 10:41:11;;;;;;;;;;;;;;;;;;5036810;28;20255;-78
2023/04/20 10:43:42;;;;;;;23.58;12.77;;;;;;;;;;5055587;28;19921;-80
2023/04/20 10:46:26;;;;;;;22.25;13.40;;;;;;;;;;5069930;28;20040;-80
2023/04/20 10:49:02;;;;;;;27.98;14.00;;;;;;;;;;5049138;28;20615;-80
2023/04/20 10:51:28;;;;;;;24.00;13.77;;;;;;;;;;5051484;28;20033;-81
2023/04/20 10:53:59;;;;;;;24.05;13.15;;;;;;;;;;5045741;28;20052;-80
2023/04/20 10:56:25;;;;;;;30.20;14.43;;;;;;;;;;5045875;28;20029;-78
2023/04/20 10:58:52;;;;;;;21.35;13.48;;;;;;;;;;5050387;28;20184;-81
2023/04/20 11:01:18;;;;;;;28.75;14.70;;;;;;;;;;5047969;28;20036;-79
2023/04/20 11:04:10;;;;;;;31.27;16.05;;;;;;;;;;5050072;28;20025;-80
2023/04/20 11:06:39;;;;;;;23.95;14.55;;;;;;;;;;5053427;28;20020;-80
2023/04/20 11:09:22;;;;;;;29.30;14.30;;;;;;;;;;5054477;28;20021;-81
2023/04/20 11:12:07;;;;;;;33.00;15.10;;;;;;;;;;5045925;28;20036;-81
2023/04/20 11:14:41;;;;;;;28.02;14.77;;;;;;;;;;5048364;28;20036;-80
2023/04/20 11:17:07;;;;;;;26.15;15.02;;;;;;;;;;5063621;28;20461;-79
2023/04/20 11:19:35;;;;;;;26.08;14.27;;;;;;;;;;5048164;28;20029;-77
2023/04/20 11:22:02;;;;;;;26.60;14.80;;;;;;;;;;5050974;28;20029;-82
2023/04/20 11:24:32;;;;;;;28.00;15.30;;;;;;;;;;5050206;28;20038;-81
2023/04/20 11:26:58;;;;;;;31.42;16.08;;;;;;;;;;5052532;28;20097;-82
2023/04/20 11:29:35;;;;;;;28.20;16.27;;;;;;;;;;5055996;28;20024;-81
2023/04/20 11:32:05;;;;;;;29.77;16.23;;;;;;;;;;5047062;28;20043;-82
2023/04/20 11:34:31;;;;;;;28.85;16.55;;;;;;;;;;5070489;28;20037;-84
2023/04/20 11:37:06;;;;;;;25.00;15.63;;;;;;;;;;5067399;28;20025;-83
2023/04/20 11:39:32;;;;;;;26.65;15.90;;;;;;;;;;5047983;28;20047;-86
2023/04/20 11:41:59;;;;;;;25.02;15.07;;;;;;;;;;5054254;28;20553;-83
2023/04/20 11:44:26;;;;;;;27.88;15.77;;;;;;;;;;5057154;28;20445;-84
2023/04/20 11:46:55;;;;;;;35.40;15.65;;;;;;;;;;5048170;28;20041;-81
2023/04/20 11:49:24;;;;;;;26.65;15.90;;;;;;;;;;5055947;28;20076;-81
2023/04/20 11:51:50;;;;;;;30.92;17.25;;;;;;;;;;5046869;28;20033;-82
2023/04/20 11:54:17;;;;;;;25.10;14.85;;;;;;;;;;5051173;28;20086;-80
2023/04/20 11:56:44;;;;;;;27.63;16.17;;;;;;;;;;5051572;28;20044;-80
2023/04/20 11:59:12;;;;;;;31.00;15.85;;;;;;;;;;5049512;28;20033;-82
2023/04/20 12:01:39;;;;;;;22.48;14.77;;;;;;;;;;5052615;28;20456;-80
2023/04/20 12:04:05;;;;;;;31.20;16.77;;;;;;;;;;5052999;28;20423;-81
2023/04/20 12:06:31;;;;;;;24.98;15.30;;;;;;;;;;5054668;28;20156;-83
2023/04/20 12:08:57;;;;;;;28.55;15.80;;;;;;;;;;5060811;28;20116;-83
2023/04/20 12:11:23;;;;;;;27.10;16.50;;;;;;;;;;5057231;28;20036;-82
2023/04/20 12:13:49;;;;;;;47.92;16.88;;;;;;;;;;5052899;28;20140;-83
2023/04/20 12:16:15;;;;;;;28.70;16.40;;;;;;;;;;5056512;28;20028;-84
2023/04/20 12:19:03;;;;;;;26.23;15.68;;;;;;;;;;5057457;28;20028;-85
2023/04/20 12:21:28;;;;;;;26.15;15.85;;;;;;;;;;5056466;28;20065;-81
2023/04/20 12:23:54;;;;;;;30.33;14.82;;;;;;;;;;5047531;28;20556;-84
2023/04/20 12:26:19;;;;;;;24.77;15.27;;;;;;;;;;5050217;28;20484;-81
2023/04/20 12:28:45;;;;;;;27.92;16.75;;;;;;;;;;5050154;28;20021;-82
2023/04/20 12:31:11;;;;;;;34.50;16.30;;;;;;;;;;5046511;28;20021;-82
2023/04/20 12:33:51;;;;;;;27.38;15.65;;;;;;;;;;5044015;28;20031;-81
2023/04/20 12:36:17;;;;;;;28.92;15.82;;;;;;;;;;5046817;28;20033;-82
2023/04/20 12:38:42;;;;;;;25.10;15.60;;;;;;;;;;5049025;28;20028;-82
2023/04/20 12:41:13;;;;;;;25.08;14.65;;;;;;;;;;5048508;28;20033;-81
2023/04/20 12:43:39;;;;;;;25.95;15.63;;;;;;;;;;5039781;28;20128;-82
2023/04/20 12:46:04;;;;;;;22.98;14.38;;;;;;;;;;5044802;28;20067;-82
2023/04/20 12:48:39;;;;;;;28.10;15.90;;;;;;;;;;5049656;28;20724;-82
2023/04/20 12:51:06;;;;;;;26.30;16.25;;;;;;;;;;5051260;28;20025;-86
2023/04/20 12:53:31;;;;;;;28.13;15.70;;;;;;;;;;5045920;28;20017;-85
2023/04/20 12:55:58;;;;;;;23.40;15.70;;;;;;;;;;5055704;28;20043;-83
2023/04/20 12:58:24;;;;;;;30.92;20.05;;;;;;;;;;5056936;28;20166;-85
2023/04/20 13:00:49;;;;;;;29.92;16.30;;;;;;;;;;5051810;28;20049;-83
2023/04/20 13:03:15;;;;;;;29.38;15.77;;;;;;;;;;5036757;28;20028;-84
2023/04/20 13:05:43;;;;;;;25.77;15.65;;;;;;;;;;5056111;28;20485;-82
2023/04/20 13:08:09;;;;;;;26.38;15.98;;;;;;;;;;5045971;28;20036;-84
2023/04/20 13:10:38;;;;;;;25.23;15.95;;;;;;;;;;5053880;28;20116;-84
2023/04/20 13:13:04;;;;;;;33.95;16.88;;;;;;;;;;5067117;28;20031;-82
2023/04/20 13:15:30;;;;;;;23.77;15.88;;;;;;;;;;5051374;28;20637;-84
2023/04/20 13:17:56;;;;;;;34.85;16.27;;;;;;;;;;5063330;28;20076;-85
2023/04/20 13:20:28;;;;;;;27.98;14.95;;;;;;;;;;5054296;28;20653;-82
2023/04/20 13:22:56;;;;;;;25.60;16.20;;;;;;;;;;5056077;28;20074;-81
2023/04/20 13:25:24;;;;;;;31.52;15.05;;;;;;;;;;5058294;28;20033;-83
2023/04/20 13:27:49;;;;;;;24.77;15.20;;;;;;;;;;5054303;28;20025;-82
2023/04/20 13:30:15;;;;;;;26.35;15.48;;;;;;;;;;5057748;28;20021;-83
2023/04/20 13:32:42;;;;;;;25.15;16.05;;;;;;;;;;5048436;28;20075;-79
2023/04/20 13:35:11;;;;;;;29.23;17.92;;;;;;;;;;5057688;28;20033;-82
2023/04/20 13:37:37;;;;;;;31.15;16.90;;;;;;;;;;5064549;28;20043;-82
2023/04/20 13:40:04;;;;;;;33.45;17.80;;;;;;;;;;5060675;28;20064;-82
2023/04/20 13:42:30;;;;;;;29.75;17.00;;;;;;;;;;5058334;28;20114;-83
2023/04/20 13:44:57;;;;;;;28.05;15.55;;;;;;;;;;5049861;28;20115;-84
2023/04/20 13:47:23;;;;;;;26.88;15.75;;;;;;;;;;5044407;28;20048;-82
2023/04/20 13:49:48;;;;;;;29.00;16.27;;;;;;;;;;5054256;28;20433;-81
2023/04/20 13:52:14;;;;;;;25.27;14.57;;;;;;;;;;5058060;28;20396;-81
2023/04/20 13:54:40;;;;;;;23.23;14.07;;;;;;;;;;5048430;28;20033;-82
2023/04/20 13:57:05;;;;;;;21.42;12.90;;;;;;;;;;5048507;28;20025;-81
2023/04/20 13:59:31;;;;;;;23.60;12.70;;;;;;;;;;5043072;28;20043;-83
2023/04/20 14:01:56;;;;;;;22.27;14.02;;;;;;;;;;5057360;28;20036;-82
2023/04/20 14:04:22;;;;;;;19.63;12.40;;;;;;;;;;5060301;28;20033;-85
2023/04/20 14:06:47;;;;;;;24.33;13.48;;;;;;;;;;5058711;28;20040;-82
2023/04/20 14:09:13;;;;;;;21.60;12.30;;;;;;;;;;5052212;28;20087;-83
2023/04/20 14:11:39;;;;;;;18.77;12.90;;;;;;;;;;5038821;28;20044;-82
2023/04/20 14:14:04;;;;;;;21.52;13.93;;;;;;;;;;5038049;28;20033;-81
2023/04/20 14:16:30;;;;;;;19.13;12.43;;;;;;;;;;5046901;28;20069;-82
2023/04/20 14:18:56;;;;;;;26.40;13.25;;;;;;;;;;5037591;28;20029;-82
2023/04/20 14:21:21;;;;;;;19.73;12.18;;;;;;;;;;5047378;28;20037;-81
2023/04/20 14:23:52;;;;;;;26.70;16.17;;;;;;;;;;5038307;28;20037;-81